Nearby METAR Reports

 

KSJC - San Jose, California, USA
Distance from station: NØ 14km
Oppdatert: 25/08/2019 04:53
Klart
Klart
 Vind fra NV
Vind: NV 19 km/h
Temperatur: 21°C
Duggpunkt: 17°C
Fuktighet: 78%
Barometer: 1013.5 hPa
Clouds: Klart
Visibility: 16 km
2019/08/25 02:53 KSJC 250253Z 32010KT 10SM CLR 21/17 A2993 RMK AO2 SLP134 T02110167 53007
KNUQ - Moffett Nas/Mtn, California, USA
Distance from station: N 14km
Oppdatert: 25/08/2019 03:56
Klart
Klart
 Vind fra NV
Vind: NV 19 km/h
Temperatur: 22°C
Duggpunkt: 16°C
Fuktighet: 69%
Barometer: 1013.5 hPa
Clouds: Klart
Visibility: 16 km
2019/08/25 01:56 KNUQ 250156Z 32010KT 10SM CLR 22/16 A2993 RMK AO2 SLP137 T02220156
 
KPAO - Palo Alto, California, USA
Distance from station: NNV 23km
Oppdatert: 25/08/2019 04:47
Klart
Klart
 Vind fra NV
Vind: NV 17 km/h
Temperatur: 19°C
Duggpunkt: 16°C
Fuktighet: 83%
Barometer: 1013.9 hPa
Clouds: Klart
Visibility: 16 km
2019/08/25 02:47 KPAO 250247Z 32009KT 10SM SKC 19/16 A2994
KRHV - San Jose/Reid, California, USA
Distance from station: ØNØ 19km
Oppdatert: 25/08/2019 04:47
Klart
Klart
 Vind fra VNV
Vind: VNV 15 km/h
Temperatur: 23°C
Duggpunkt: 16°C
Fuktighet: 65%
Barometer: 1013.5 hPa
Clouds: Klart
Visibility: 16 km
2019/08/25 02:47 KRHV 250247Z 30008KT 10SM SKC 23/16 A2993
 
KOAK - Oakland, California, USA
Distance from station: NNV 50km
Oppdatert: 25/08/2019 04:53
Few Clouds
Few Clouds
 Vind fra NV
Vind: NV 15 km/h
Temperatur: 18°C
Duggpunkt: 14°C
Fuktighet: 78%
Barometer: 1013.9 hPa
Clouds: Few Clouds
Visibility: 16 km
Cloud details: Few Clouds 244 m
2019/08/25 02:53 KOAK 250253Z 31008KT 10SM FEW008 18/14 A2994 RMK AO2 SLP139 T01830144 53002
KSQL - San Carlos Airpo, California, USA
Distance from station: NV 34km
Oppdatert: 25/08/2019 03:47
Klart
Klart
 Vind fra N
Vind: N 19 km/h
Temperatur: 20°C
Duggpunkt: 17°C
Fuktighet: 83%
Barometer: 1013.5 hPa
Clouds: Klart
Visibility: 16 km
2019/08/25 01:47 KSQL 250147Z 36010KT 10SM SKC 20/17 A2993
 
KSFO - San Francisco, California, USA
Distance from station: NV 49km
Oppdatert: 25/08/2019 03:56
Few Clouds
Few Clouds
 Vind fra VNV
Vind: VNV 31 km/h
Temperatur: 18°C
Duggpunkt: 14°C
Fuktighet: 78%
Barometer: 1013.2 hPa
Clouds: Few Clouds
Visibility: 16 km
Cloud details: Few Clouds 122 m
2019/08/25 01:56 KSFO 250156Z 29017KT 10SM FEW004 18/14 A2992 RMK AO2 SLP132 T01780139
KE16 - San Martin, California, USA
Distance from station: ØSØ 43km
Oppdatert: 05/08/2019 19:10
NOT Current
Klart
Klart
 Vind fra ØSØ
Vind: ØSØ 19 km/h
Temperatur: 19°C
Duggpunkt: 14°C
Fuktighet: 73%
Barometer: 1016.9 hPa
Clouds: Klart
Visibility: 16 km
2019/08/05 17:10 KE16 051710Z AUTO 12010KT 10SM CLR 19/14 A3003 RMK AO2
 
KWVI - Watsonville, California, USA
Distance from station: SSØ 44km
Oppdatert: 25/08/2019 04:53
Klart
Klart
 Vind fra VSV
Vind: VSV 6 km/h
Temperatur: 16°C
Duggpunkt: 14°C
Fuktighet: 88%
Barometer: 1014.6 hPa
Clouds: Klart
Visibility: 16 km
2019/08/25 02:53 KWVI 250253Z AUTO 25003KT 10SM CLR 16/14 A2996 RMK AO2 SLP145 T01610139 53002
KHAF - Half Moon Bay, California, USA
Distance from station: VNV 50km
Oppdatert: 25/08/2019 04:55
Mist, Overskyet
Mist, Overskyet
 Vind fra calm
Vind: Stille
Temperatur: 15°C
Duggpunkt: 14°C
Fuktighet: 94%
Barometer: 1014.9 hPa
Oversikt: Mist
Clouds: Overskyet
Visibility: 6 km
Cloud details: Overskyet 122 m
2019/08/25 02:55 KHAF 250255Z AUTO 00000KT 4SM BR OVC004 15/14 A2997 RMK AO2
 
KHWD - Hayward, California, USA
Distance from station: N 44km
Oppdatert: 25/08/2019 04:54
Klart
Klart
 Vind fra VNV
Vind: VNV 15 km/h
Temperatur: 20°C
Duggpunkt: 14°C
Fuktighet: 69%
Barometer: 1013.5 hPa
Clouds: Klart
Visibility: 16 km
2019/08/25 02:54 KHWD 250254Z 30008KT 10SM CLR 20/14 A2993 RMK AO2 SLP145 T02000144 53005
KLVK - Livermore, California, USA
Distance from station: NNØ 51km
Oppdatert: 25/08/2019 04:53
Klart
Klart
 Vind fra VNV
Vind: VNV 17 km/h
Temperatur: 26°C
Duggpunkt: 12°C
Fuktighet: 42%
Barometer: 1012.9 hPa
Clouds: Klart
Visibility: 16 km
2019/08/25 02:53 KLVK 250253Z 29009KT 10SM CLR 26/12 A2991 RMK AO2 SLP125 T02560122 53008